Time;durP1;ratioP1;P1;durP2;ratioP2;P2;SDS_P1;SDS_P2;PMS_P1;PMS_P2;Temp;Humidity;BMP_temperature;BMP_pressure;BME280_temperature;BME280_humidity;BME280_pressure;Samples;Min_cycle;Max_cycle;Signal;HPM_P1;HPM_P2
2021/12/24 00:00:32;;;;;;;87.40;40.92;;;;;;;-3.03;89.58;99287.53;5091956;28;20489;-57
2021/12/24 00:02:59;;;;;;;77.13;35.15;;;;;;;-3.01;89.56;99290.09;5095749;28;20087;-57
2021/12/24 00:05:27;;;;;;;78.40;37.17;;;;;;;-3.03;89.13;99282.47;5099058;28;20058;-57
2021/12/24 00:07:55;;;;;;;81.05;35.67;;;;;;;-3.06;88.94;99284.94;5095498;28;20135;-55
2021/12/24 00:10:23;;;;;;;77.90;36.17;;;;;;;-3.04;89.00;99273.16;5093159;28;20424;-57
2021/12/24 00:12:58;;;;;;;81.15;36.30;;;;;;;-3.01;89.35;99267.28;5097386;28;20112;-56
2021/12/24 00:18:18;;;;;;;78.80;35.20;;;;;;;-3.07;89.22;99245.19;5088112;28;20066;-56
2021/12/24 00:37:19;;;;;;;84.00;37.20;;;;;;;-3.12;89.18;99218.00;5094431;28;20505;-56
2021/12/24 00:39:55;;;;;;;84.53;37.85;;;;;;;-3.11;89.44;99217.22;5093483;28;20055;-55
2021/12/24 00:42:22;;;;;;;;;;;;;;;-3.18;89.23;99209.44;5097780;28;20070;-55
2021/12/24 00:44:49;;;;;;;83.55;36.28;;;;;;;-3.14;89.24;99209.50;5095291;28;19945;-56
2021/12/24 00:47:16;;;;;;;83.65;37.20;;;;;;;-3.13;89.09;99201.94;5095183;28;20530;-56
2021/12/24 00:49:43;;;;;;;93.97;43.58;;;;;;;-3.09;89.10;99191.06;5098111;28;20135;-56
2021/12/24 00:52:22;;;;;;;85.10;37.58;;;;;;;-3.07;89.02;99191.09;5102057;28;20058;-56
2021/12/24 00:55:03;;;;;;;77.20;36.00;;;;;;;-3.07;88.97;99188.56;5094146;28;20036;-56
2021/12/24 00:57:30;;;;;;;76.40;34.70;;;;;;;-3.06;88.52;99191.13;5101301;28;20043;-56
2021/12/24 00:59:57;;;;;;;78.03;36.53;;;;;;;-3.05;88.64;99197.06;5099000;28;20056;-56
2021/12/24 01:02:25;;;;;;;76.72;36.22;;;;;;;-3.04;88.67;99192.03;5101898;28;20054;-56
2021/12/24 01:04:52;;;;;;;83.05;38.05;;;;;;;-3.04;88.74;99188.63;5099530;28;20043;-56
2021/12/24 01:07:19;;;;;;;85.63;37.00;;;;;;;-3.04;87.93;99186.09;5097836;28;20056;-56
2021/12/24 01:09:46;;;;;;;77.45;35.53;;;;;;;-3.05;88.50;99189.47;5093641;28;20548;-56
2021/12/24 01:12:15;;;;;;;77.07;35.42;;;;;;;-3.00;88.53;99182.81;5100978;28;20100;-57
2021/12/24 01:14:46;;;;;;;75.18;35.28;;;;;;;-2.97;88.49;99177.78;5097531;28;20040;-56
2021/12/24 01:17:21;;;;;;;88.70;36.20;;;;;;;-2.95;88.24;99177.00;5095974;28;20051;-56
2021/12/24 01:19:51;;;;;;;87.22;37.40;;;;;;;-2.92;88.46;99177.06;5102842;28;20062;-56
2021/12/24 01:22:54;;;;;;;78.30;35.53;;;;;;;-2.87;88.26;99174.63;5101232;28;20062;-55
2021/12/24 01:25:24;;;;;;;84.25;37.03;;;;;;;-2.86;87.89;99166.19;5097973;28;20181;-56
2021/12/24 01:28:05;;;;;;;72.57;33.00;;;;;;;-2.89;87.32;99158.53;5095160;28;20048;-56
2021/12/24 01:39:08;;;;;;;76.32;32.85;;;;;;;-2.75;87.86;99153.72;5094868;28;20059;-56
2021/12/24 01:44:26;;;;;;;75.28;34.60;;;;;;;-2.73;87.54;99142.78;5094688;28;20050;-56
2021/12/24 01:46:55;;;;;;;74.25;34.15;;;;;;;-2.70;87.49;99145.38;5101628;28;20944;-57
2021/12/24 01:49:23;;;;;;;81.28;36.63;;;;;;;-2.72;87.73;99144.47;5098352;28;20105;-55
2021/12/24 01:51:50;;;;;;;77.00;34.75;;;;;;;-2.78;87.15;99134.22;5095387;28;20052;-56
2021/12/24 01:54:17;;;;;;;70.93;33.30;;;;;;;-2.82;87.22;99141.75;5096920;28;20047;-55
2021/12/24 01:56:45;;;;;;;72.28;33.58;;;;;;;-2.89;87.28;99130.63;5093609;28;20160;-55
2021/12/24 01:59:13;;;;;;;77.82;34.35;;;;;;;-2.91;87.82;99130.59;5099704;28;20059;-56
2021/12/24 02:01:42;;;;;;;74.03;33.45;;;;;;;-2.89;87.57;99141.63;5097405;28;20051;-56
2021/12/24 02:04:11;;;;;;;77.28;35.72;;;;;;;-2.90;88.04;99134.00;5092880;28;20043;-57
2021/12/24 02:06:39;;;;;;;76.57;34.67;;;;;;;-2.84;88.14;99123.97;5097806;28;20044;-56
2021/12/24 02:09:07;;;;;;;74.88;34.33;;;;;;;-2.81;88.58;99113.03;5099424;28;20044;-57
2021/12/24 02:11:37;;;;;;;83.10;35.78;;;;;;;-2.80;87.94;99113.06;5101376;28;20043;-56
2021/12/24 02:14:06;;;;;;;74.40;34.13;;;;;;;-2.76;88.19;99111.44;5098437;28;20051;-56
2021/12/24 02:16:45;;;;;;;80.47;35.55;;;;;;;-2.75;87.92;99108.91;5094550;28;20563;-56
2021/12/24 02:30:34;;;;;;;127.00;52.28;;;;;;;-2.80;87.76;99074.16;5101328;28;20086;-57
2021/12/24 02:33:02;;;;;;;146.48;57.22;;;;;;;-2.79;87.73;99076.72;5095785;28;21180;-57
2021/12/24 02:35:30;;;;;;;155.50;60.13;;;;;;;-2.80;87.89;99075.00;5104135;28;20047;-57
2021/12/24 02:37:59;;;;;;;162.77;60.40;;;;;;;-2.78;87.85;99083.50;5104821;28;20046;-57
2021/12/24 02:40:26;;;;;;;134.23;53.70;;;;;;;-2.77;87.59;99075.06;5098852;28;20104;-57
2021/12/24 02:42:56;;;;;;;82.93;36.58;;;;;;;-2.77;87.44;99080.13;5100461;28;20062;-58
2021/12/24 02:45:24;;;;;;;105.22;46.20;;;;;;;-2.71;88.32;99070.09;5102788;27;20055;-58
2021/12/24 02:48:14;;;;;;;86.35;38.45;;;;;;;-2.68;88.24;99067.63;5095896;28;20481;-55
2021/12/24 02:56:14;;;;;;;109.75;46.03;;;;;;;-2.61;87.85;99063.50;5092410;28;20519;-57
2021/12/24 02:58:43;;;;;;;96.47;40.95;;;;;;;-2.61;87.31;99056.75;5094101;28;20062;-57
2021/12/24 03:01:11;;;;;;;80.65;38.28;;;;;;;-2.60;87.83;99045.81;5097419;28;20572;-56
2021/12/24 03:03:39;;;;;;;131.18;54.90;;;;;;;-2.59;87.29;99039.91;5097160;28;20044;-58
2021/12/24 03:06:07;;;;;;;78.15;35.67;;;;;;;-2.60;87.29;99027.19;5093726;28;20615;-58
2021/12/24 03:08:35;;;;;;;79.88;35.08;;;;;;;-2.58;87.94;99020.47;5095458;28;20055;-58
2021/12/24 03:11:03;;;;;;;84.93;37.65;;;;;;;-2.57;87.79;99023.03;5095571;28;20047;-58
2021/12/24 03:13:32;;;;;;;84.25;38.20;;;;;;;-2.56;87.34;99014.59;5098573;28;20443;-58
2021/12/24 03:16:00;;;;;;;99.65;42.58;;;;;;;-2.56;87.43;99018.81;5092497;28;20047;-57
2021/12/24 03:18:30;;;;;;;191.55;80.53;;;;;;;-2.57;87.42;99025.56;5093054;28;20052;-58
2021/12/24 03:21:05;;;;;;;166.60;69.72;;;;;;;-2.61;87.28;99030.53;5097499;28;20047;-58
2021/12/24 03:23:38;;;;;;;266.08;111.90;;;;;;;-2.63;87.18;99027.97;5092133;28;20055;-57
2021/12/24 03:26:09;;;;;;;105.93;45.28;;;;;;;-2.65;87.06;99016.94;5097389;28;20051;-55
2021/12/24 03:28:36;;;;;;;117.05;50.97;;;;;;;-2.64;87.13;99016.09;5096210;28;20374;-57
2021/12/24 03:31:04;;;;;;;104.25;44.63;;;;;;;-2.65;86.77;99004.25;5098765;28;20047;-58
2021/12/24 03:33:33;;;;;;;142.25;65.32;;;;;;;-2.67;87.33;99005.91;5093478;28;20043;-56
2021/12/24 03:36:01;;;;;;;102.40;45.38;;;;;;;-2.69;87.15;99005.03;5092717;28;20044;-57
2021/12/24 03:38:28;;;;;;;86.32;37.30;;;;;;;-2.68;87.25;99006.75;5094172;28;20062;-57
2021/12/24 03:40:55;;;;;;;79.78;38.13;;;;;;;-2.68;87.21;98994.06;5093832;28;20063;-56
2021/12/24 03:43:24;;;;;;;72.13;34.05;;;;;;;-2.70;86.89;98985.56;5096392;28;20047;-57
2021/12/24 03:45:59;;;;;;;89.90;41.35;;;;;;;-2.72;87.49;98987.22;5098213;28;20067;-57
2021/12/24 03:48:39;;;;;;;73.55;34.92;;;;;;;-2.75;87.37;98981.25;5098432;28;20044;-58
2021/12/24 03:51:23;;;;;;;77.95;36.60;;;;;;;-2.75;87.07;98986.31;5091046;28;20561;-57
2021/12/24 03:56:37;;;;;;;83.40;39.08;;;;;;;-2.73;87.32;98974.53;5102734;28;20071;-56
2021/12/24 03:59:07;;;;;;;80.78;36.22;;;;;;;-2.74;87.78;98973.66;5095654;28;20051;-58
2021/12/24 04:01:35;;;;;;;71.60;34.88;;;;;;;-2.73;87.74;98980.44;5100196;28;20050;-58
2021/12/24 04:04:03;;;;;;;77.68;36.40;;;;;;;-2.71;87.58;98968.66;5092555;28;20047;-58
2021/12/24 04:06:30;;;;;;;72.68;34.53;;;;;;;-2.66;87.87;98966.19;5094661;28;20040;-58
2021/12/24 04:08:58;;;;;;;79.20;35.20;;;;;;;-2.68;87.62;98968.69;5094242;28;20047;-58
2021/12/24 04:11:25;;;;;;;80.05;35.47;;;;;;;-2.75;86.94;98961.81;5099327;28;20597;-55
2021/12/24 04:13:52;;;;;;;83.90;41.03;;;;;;;-2.76;87.29;98964.34;5100072;28;20043;-58
2021/12/24 04:16:20;;;;;;;83.45;38.35;;;;;;;-2.80;87.13;98963.44;5100304;28;20404;-58
2021/12/24 04:18:55;;;;;;;85.22;40.45;;;;;;;-2.83;87.24;98965.06;5100986;28;20047;-57
2021/12/24 04:26:48;;;;;;;81.75;37.80;;;;;;;-2.87;87.86;98966.69;5095487;28;20565;-57
2021/12/24 04:29:15;;;;;;;86.93;38.47;;;;;;;-2.88;87.96;98965.00;5096060;28;20051;-55
2021/12/24 04:31:47;;;;;;;79.32;35.10;;;;;;;-2.86;88.26;98955.72;5096540;28;20067;-56
2021/12/24 04:34:14;;;;;;;77.20;36.53;;;;;;;-2.84;87.80;98959.13;5095053;28;20052;-58
2021/12/24 04:37:09;;;;;;;78.18;36.42;;;;;;;-2.86;87.73;98958.25;5100888;28;20047;-57
2021/12/24 04:39:45;;;;;;;68.43;31.23;;;;;;;-2.84;87.75;98951.53;5100998;28;20592;-56
2021/12/24 05:01:11;;;;;;;59.08;26.02;;;;;;;-2.73;88.08;98944.94;5097575;28;20055;-57
2021/12/24 05:01:46;;;;;;;62.63;27.48;;;;;;;-2.66;87.70;98941.66;5100934;28;20054;-58
2021/12/24 05:04:16;;;;;;;66.70;27.95;;;;;;;-2.64;87.71;98952.69;5104072;28;20043;-57
2021/12/24 05:06:51;;;;;;;67.53;29.17;;;;;;;-2.62;88.12;98958.66;5096334;28;20047;-57
2021/12/24 05:09:23;;;;;;;62.78;28.05;;;;;;;-2.60;88.16;98957.03;5099970;28;20075;-58
2021/12/24 05:11:50;;;;;;;66.38;28.30;;;;;;;-2.58;87.66;98951.97;5100313;28;20063;-57
2021/12/24 05:14:17;;;;;;;54.63;25.65;;;;;;;-2.56;88.02;98945.22;5103170;28;20058;-58
2021/12/24 05:16:49;;;;;;;57.05;25.33;;;;;;;-2.51;88.21;98935.16;5094735;28;20054;-57
2021/12/24 05:22:03;;;;;;;57.90;25.00;;;;;;;-2.43;87.65;98920.91;5095149;28;20051;-58
2021/12/24 05:24:30;;;;;;;63.63;26.50;;;;;;;-2.40;87.68;98928.56;5093211;28;20055;-57
2021/12/24 05:27:00;;;;;;;68.72;26.65;;;;;;;-2.38;87.52;98926.88;5095081;28;20047;-56
2021/12/24 05:29:28;;;;;;;96.65;36.67;;;;;;;-2.36;87.67;98915.06;5103147;28;20552;-58
2021/12/24 05:31:56;;;;;;;67.90;27.10;;;;;;;-2.35;87.51;98914.25;5099442;28;20105;-57
2021/12/24 05:34:24;;;;;;;61.38;25.75;;;;;;;-2.33;87.60;98915.13;5094408;28;20059;-58
2021/12/24 05:36:52;;;;;;;55.53;24.08;;;;;;;-2.31;87.80;98921.06;5097986;28;20058;-57
2021/12/24 05:39:22;;;;;;;55.63;24.98;;;;;;;-2.31;87.55;98914.31;5096704;28;20059;-57
2021/12/24 05:41:49;;;;;;;58.83;26.58;;;;;;;-2.30;87.99;98915.16;5094850;28;20044;-56
2021/12/24 05:44:17;;;;;;;63.08;26.95;;;;;;;-2.27;87.79;98915.19;5098744;28;20051;-57
2021/12/24 05:46:45;;;;;;;62.80;27.42;;;;;;;-2.25;87.92;98906.78;5092825;27;20036;-57
2021/12/24 05:49:12;;;;;;;64.38;27.40;;;;;;;-2.21;88.40;98902.59;5101008;28;20093;-58
2021/12/24 05:51:41;;;;;;;56.45;24.67;;;;;;;-2.17;87.72;98895.84;5093049;28;20741;-58
2021/12/24 05:54:08;;;;;;;56.67;24.05;;;;;;;-2.16;87.58;98895.88;5098565;27;20044;-57
2021/12/24 05:56:35;;;;;;;53.58;23.33;;;;;;;-2.14;87.39;98896.75;5100197;28;20040;-58
2021/12/24 05:59:02;;;;;;;59.72;25.60;;;;;;;-2.13;87.56;98883.22;5101848;28;20051;-57
2021/12/24 06:01:29;;;;;;;62.03;26.98;;;;;;;-2.10;87.48;98878.19;5098894;28;20050;-56
2021/12/24 06:03:57;;;;;;;84.88;32.55;;;;;;;-2.07;87.48;98883.34;5100949;28;20059;-58
2021/12/24 06:06:24;;;;;;;89.82;33.38;;;;;;;-2.07;87.44;98880.78;5095637;28;20048;-57
2021/12/24 06:08:52;;;;;;;70.20;27.10;;;;;;;-2.07;87.87;98883.34;5093482;28;20054;-58
2021/12/24 06:11:19;;;;;;;52.53;23.52;;;;;;;-2.08;87.43;98879.09;5094449;28;20059;-58
2021/12/24 06:13:51;;;;;;;53.22;24.38;;;;;;;-2.10;87.54;98865.50;5093994;28;20056;-58
2021/12/24 06:16:19;;;;;;;51.65;23.15;;;;;;;-2.07;87.84;98852.88;5101499;28;20043;-58
2021/12/24 06:18:46;;;;;;;57.00;23.50;;;;;;;-2.05;87.50;98852.88;5095864;28;20056;-57
2021/12/24 06:21:14;;;;;;;56.95;24.88;;;;;;;-2.07;87.34;98855.41;5097995;28;20040;-57
2021/12/24 06:23:43;;;;;;;57.47;24.58;;;;;;;-2.07;87.26;98855.41;5096422;28;20044;-57
2021/12/24 06:26:12;;;;;;;57.00;23.85;;;;;;;-2.05;87.70;98837.66;5094542;28;20047;-57
2021/12/24 06:28:39;;;;;;;51.17;24.50;;;;;;;-2.02;87.42;98845.31;5094309;28;21964;-57
2021/12/24 06:31:06;;;;;;;55.10;23.88;;;;;;;-2.00;87.20;98844.47;5098852;28;20061;-58
2021/12/24 06:33:34;;;;;;;55.63;23.48;;;;;;;-1.98;87.65;98850.44;5103832;28;20074;-58
2021/12/24 06:36:01;;;;;;;57.03;26.02;;;;;;;-1.93;87.97;98836.09;5093706;28;20062;-55
2021/12/24 06:38:28;;;;;;;53.58;24.77;;;;;;;-1.87;87.87;98834.47;5101709;28;20050;-56
2021/12/24 06:40:56;;;;;;;51.33;23.75;;;;;;;-1.87;87.53;98839.53;5095561;28;20051;-57
2021/12/24 06:43:25;;;;;;;53.15;23.50;;;;;;;-1.87;87.46;98839.53;5093313;28;20468;-58
2021/12/24 06:45:53;;;;;;;60.22;24.85;;;;;;;-1.85;87.29;98835.31;5096860;28;20043;-57
2021/12/24 06:48:21;;;;;;;56.80;25.98;;;;;;;-1.86;86.89;98841.25;5097163;28;20083;-57
2021/12/24 06:50:48;;;;;;;61.30;26.02;;;;;;;-1.86;87.37;98836.16;5097026;28;20117;-58
2021/12/24 06:53:15;;;;;;;56.30;25.92;;;;;;;-1.91;86.67;98834.44;5094763;28;20553;-56
2021/12/24 06:55:42;;;;;;;57.38;24.83;;;;;;;-1.93;86.74;98831.03;5103310;28;20054;-57
2021/12/24 06:58:10;;;;;;;54.45;22.27;;;;;;;-2.00;86.88;98829.25;5094166;28;20048;-57
2021/12/24 07:00:38;;;;;;;53.50;22.48;;;;;;;-2.06;86.92;98834.25;5093470;28;20480;-57
2021/12/24 07:03:05;;;;;;;51.70;21.55;;;;;;;-2.06;87.55;98834.25;5099383;28;20051;-58
2021/12/24 07:05:32;;;;;;;56.38;25.63;;;;;;;-2.06;87.76;98838.50;5094126;28;20366;-58
2021/12/24 07:08:00;;;;;;;120.80;43.80;;;;;;;-2.07;87.84;98837.63;5093511;28;20040;-57
2021/12/24 07:10:27;;;;;;;117.25;43.20;;;;;;;-2.02;87.82;98838.53;5093241;28;20039;-57
2021/12/24 07:12:54;;;;;;;101.45;40.58;;;;;;;-1.99;88.26;98843.66;5092640;28;20048;-58
2021/12/24 07:15:22;;;;;;;78.63;31.23;;;;;;;-1.97;87.99;98841.97;5095727;28;20059;-58
2021/12/24 07:17:50;;;;;;;62.78;27.77;;;;;;;-1.94;88.42;98839.47;5102121;28;20043;-58
2021/12/24 07:20:18;;;;;;;59.22;27.30;;;;;;;-1.92;88.73;98842.88;5094486;28;20055;-57
2021/12/24 07:22:45;;;;;;;52.22;23.33;;;;;;;-1.93;88.96;98846.25;5095479;28;20573;-56
2021/12/24 07:25:12;;;;;;;50.35;21.05;;;;;;;-1.92;89.67;98840.34;5093531;28;20047;-58
2021/12/24 07:27:39;;;;;;;52.15;23.05;;;;;;;-1.86;90.30;98843.78;5095022;28;20047;-57
2021/12/24 07:30:10;;;;;;;53.63;23.25;;;;;;;-1.83;90.95;98841.28;5095735;28;20143;-58
2021/12/24 07:32:38;;;;;;;56.58;22.27;;;;;;;-1.81;91.14;98837.06;5096456;28;20080;-58
2021/12/24 07:35:07;;;;;;;44.53;19.67;;;;;;;-1.75;90.86;98829.50;5096034;28;20052;-57
2021/12/24 07:37:34;;;;;;;42.65;19.25;;;;;;;-1.71;91.81;98837.16;5091576;28;20044;-58
2021/12/24 07:40:03;;;;;;;45.25;18.95;;;;;;;-1.66;91.48;98834.69;5090000;28;20515;-58
2021/12/24 07:42:30;;;;;;;44.97;19.27;;;;;;;-1.62;91.70;98827.09;5092564;28;20047;-57
2021/12/24 07:44:58;;;;;;;40.40;19.05;;;;;;;-1.56;91.49;98830.53;5091437;28;20056;-55
2021/12/24 07:47:32;;;;;;;40.72;18.63;;;;;;;-1.51;92.01;98819.59;5098829;28;20139;-54
2021/12/24 07:50:03;;;;;;;34.95;16.58;;;;;;;-1.45;91.69;98824.75;5099580;28;20048;-57
2021/12/24 07:52:31;;;;;;;38.72;16.45;;;;;;;-1.39;91.57;98819.72;5100038;28;20047;-58
2021/12/24 07:54:59;;;;;;;53.30;20.98;;;;;;;-1.35;91.42;98816.34;5093169;28;20051;-56
2021/12/24 07:57:26;;;;;;;45.22;20.05;;;;;;;-1.30;91.31;98808.75;5096864;28;20040;-55
2021/12/24 07:59:53;;;;;;;44.33;20.42;;;;;;;-1.27;90.96;98808.78;5095461;28;20051;-54
2021/12/24 08:02:25;;;;;;;43.55;19.08;;;;;;;-1.20;90.91;98809.69;5094680;27;20047;-55
2021/12/24 08:04:53;;;;;;;41.17;18.30;;;;;;;-1.19;90.97;98808.84;5101690;28;20182;-55
2021/12/24 08:07:21;;;;;;;39.55;19.30;;;;;;;-1.17;90.61;98812.25;5094328;28;20129;-58
2021/12/24 08:09:51;;;;;;;43.67;20.00;;;;;;;-1.14;90.66;98809.72;5094198;28;20050;-57
2021/12/24 08:12:20;;;;;;;41.00;19.20;;;;;;;-1.10;90.38;98809.75;5094200;28;20062;-56
2021/12/24 08:14:47;;;;;;;44.28;20.23;;;;;;;-1.07;90.50;98801.31;5095391;27;20454;-55
2021/12/24 08:17:16;;;;;;;44.42;20.27;;;;;;;-1.06;90.36;98808.09;5094440;28;20051;-55
2021/12/24 08:19:43;;;;;;;51.67;19.40;;;;;;;-1.01;90.39;98806.47;5094759;27;20052;-55
2021/12/24 08:22:11;;;;;;;43.65;20.63;;;;;;;-1.00;90.30;98800.53;5096546;28;20442;-57
2021/12/24 08:24:39;;;;;;;49.95;21.95;;;;;;;-0.97;90.29;98813.28;5097057;28;20455;-57
2021/12/24 08:27:09;;;;;;;44.25;21.45;;;;;;;-0.93;90.15;98809.91;5097548;28;20066;-57
2021/12/24 08:29:37;;;;;;;43.30;20.13;;;;;;;-0.88;89.95;98818.41;5099671;28;20039;-55
2021/12/24 08:32:05;;;;;;;47.10;21.08;;;;;;;-0.83;89.92;98819.31;5095623;28;20074;-57
2021/12/24 08:34:33;;;;;;;46.95;20.05;;;;;;;-0.77;89.83;98821.88;5094174;27;20052;-59
2021/12/24 08:37:00;;;;;;;48.15;20.75;;;;;;;-0.73;89.83;98808.34;5093882;28;20075;-56
2021/12/24 08:39:28;;;;;;;44.67;19.23;;;;;;;-0.68;89.24;98805.81;5092326;27;20070;-55
2021/12/24 08:41:56;;;;;;;43.67;18.90;;;;;;;-0.64;89.61;98798.22;5094869;28;20048;-57
2021/12/24 08:44:26;;;;;;;39.97;18.20;;;;;;;-0.58;89.41;98806.72;5094625;28;20051;-57
2021/12/24 08:46:54;;;;;;;43.05;18.92;;;;;;;-0.54;89.22;98804.19;5094716;28;20048;-56
2021/12/24 08:49:23;;;;;;;52.97;22.40;;;;;;;-0.50;89.20;98802.56;5093926;28;20056;-58
2021/12/24 08:51:50;;;;;;;50.35;21.90;;;;;;;-0.47;89.09;98810.19;5093461;28;20063;-57
2021/12/24 08:54:18;;;;;;;48.03;21.50;;;;;;;-0.47;89.21;98811.03;5093698;28;20055;-57
2021/12/24 08:56:46;;;;;;;47.40;21.27;;;;;;;-0.49;89.23;98806.78;5093432;28;20046;-57
2021/12/24 08:59:13;;;;;;;41.70;19.10;;;;;;;-0.45;89.46;98798.31;5093054;28;20543;-57
2021/12/24 09:01:42;;;;;;;38.33;17.58;;;;;;;-0.41;89.32;98794.94;5091296;27;20062;-56
2021/12/24 09:04:09;;;;;;;38.92;17.83;;;;;;;-0.38;89.61;98800.06;5093254;28;20071;-56
2021/12/24 09:06:36;;;;;;;38.97;18.15;;;;;;;-0.37;89.47;98801.75;5093371;28;20052;-56
2021/12/24 09:09:06;;;;;;;41.70;18.17;;;;;;;-0.35;89.21;98797.53;5092903;28;20541;-57
2021/12/24 09:11:35;;;;;;;37.45;18.77;;;;;;;-0.32;89.07;98795.00;5092007;28;20048;-58
2021/12/24 09:14:02;;;;;;;44.60;19.17;;;;;;;-0.27;88.93;98793.31;5094248;28;20055;-57
2021/12/24 09:16:29;;;;;;;38.97;17.85;;;;;;;-0.28;88.74;98791.59;5092966;28;20088;-55
2021/12/24 09:19:02;;;;;;;45.97;21.17;;;;;;;-0.26;88.86;98787.38;5092054;28;20051;-56
2021/12/24 09:21:29;;;;;;;44.15;20.40;;;;;;;-0.26;88.97;98779.72;5091658;28;20051;-56
2021/12/24 09:23:58;;;;;;;41.47;19.25;;;;;;;-0.25;88.71;98773.78;5093251;28;20066;-56
2021/12/24 09:26:28;;;;;;;45.03;22.13;;;;;;;-0.26;88.97;98773.78;5090263;28;20048;-56
2021/12/24 09:28:56;;;;;;;46.67;21.55;;;;;;;-0.25;88.80;98766.16;5093381;28;20067;-56
2021/12/24 09:31:23;;;;;;;58.47;24.60;;;;;;;-0.28;88.93;98766.16;5095233;28;20059;-56
2021/12/24 09:33:50;;;;;;;51.40;24.23;;;;;;;-0.30;88.80;98770.38;5094897;28;20086;-57
2021/12/24 09:36:24;;;;;;;44.08;20.65;;;;;;;-0.29;89.01;98764.44;5094783;28;20479;-56
2021/12/24 09:38:52;;;;;;;46.47;20.48;;;;;;;-0.27;88.96;98759.34;5104676;28;20048;-57
2021/12/24 09:41:19;;;;;;;45.25;20.83;;;;;;;-0.25;88.70;98768.69;5099998;28;20050;-57
2021/12/24 09:43:46;;;;;;;41.88;19.42;;;;;;;-0.26;88.75;98764.47;5097690;28;20047;-57
2021/12/24 09:46:13;;;;;;;48.30;21.35;;;;;;;-0.25;88.63;98766.16;5101727;28;20040;-55
2021/12/24 09:48:41;;;;;;;48.33;21.60;;;;;;;-0.25;88.68;98766.16;5096849;28;20048;-56
2021/12/24 09:51:08;;;;;;;43.15;18.60;;;;;;;-0.23;88.75;98758.53;5103492;27;20466;-57
2021/12/24 09:53:37;;;;;;;46.67;20.27;;;;;;;-0.23;88.70;98748.34;5101554;27;20048;-56
2021/12/24 09:56:05;;;;;;;43.15;19.48;;;;;;;-0.19;89.02;98745.81;5096162;27;20154;-57
2021/12/24 09:58:32;;;;;;;39.85;18.30;;;;;;;-0.19;88.82;98740.72;5099803;27;20048;-57
2021/12/24 10:00:59;;;;;;;42.22;18.35;;;;;;;-0.19;89.11;98744.94;5102271;27;20040;-58
2021/12/24 10:03:31;;;;;;;34.33;16.95;;;;;;;-0.18;89.11;98749.19;5099957;27;20036;-56
2021/12/24 10:05:59;;;;;;;42.90;18.58;;;;;;;-0.17;88.73;98748.34;5099340;27;20048;-54
2021/12/24 10:08:31;;;;;;;43.05;18.10;;;;;;;-0.17;88.88;98744.13;5104418;27;20059;-56
2021/12/24 10:11:05;;;;;;;34.53;17.13;;;;;;;-0.13;88.74;98745.81;5098525;27;20500;-57
2021/12/24 10:13:37;;;;;;;38.53;17.55;;;;;;;-0.09;88.87;98742.44;5100240;27;20435;-56
2021/12/24 10:16:06;;;;;;;39.33;17.30;;;;;;;-0.06;88.52;98737.34;5097746;27;20052;-58
2021/12/24 10:18:40;;;;;;;40.72;17.33;;;;;;;-0.07;88.32;98734.78;5095474;28;20040;-59
2021/12/24 10:21:11;;;;;;;38.53;17.13;;;;;;;-0.10;88.05;98730.53;5099911;28;20075;-58
2021/12/24 10:23:48;;;;;;;35.55;16.33;;;;;;;-0.09;88.46;98727.16;5099802;28;20052;-57
2021/12/24 10:26:20;;;;;;;35.88;16.17;;;;;;;-0.08;88.11;98723.75;5094740;28;20063;-57
2021/12/24 10:28:57;;;;;;;35.58;17.52;;;;;;;-0.06;88.35;98719.50;5097215;27;20093;-57
2021/12/24 10:31:27;;;;;;;37.35;16.30;;;;;;;-0.01;88.11;98715.28;5094773;28;20707;-54
2021/12/24 10:34:23;;;;;;;36.47;16.45;;;;;;;0.04;88.11;98717.00;5094102;28;20457;-57
2021/12/24 10:37:04;;;;;;;38.42;16.88;;;;;;;0.02;87.96;98708.53;5097452;28;20396;-58
2021/12/24 10:39:35;;;;;;;35.58;16.55;;;;;;;0.06;87.73;98715.31;5098911;28;20052;-57
2021/12/24 10:42:08;;;;;;;37.13;16.23;;;;;;;0.09;88.11;98715.31;5094011;28;20071;-56
2021/12/24 10:44:38;;;;;;;33.13;15.38;;;;;;;0.12;88.26;98710.22;5096951;28;20077;-58
2021/12/24 10:47:13;;;;;;;35.42;15.88;;;;;;;0.16;88.11;98711.94;5095456;28;20044;-58
2021/12/24 10:49:54;;;;;;;43.28;20.05;;;;;;;0.17;88.26;98703.44;5097075;28;20416;-58
2021/12/24 10:55:10;;;;;;;37.70;17.10;;;;;;;0.20;87.57;98688.16;5096464;28;20055;-58
2021/12/24 10:57:40;;;;;;;37.03;16.55;;;;;;;0.21;87.45;98674.56;5095921;28;20063;-58
2021/12/24 11:00:15;;;;;;;27.80;13.55;;;;;;;0.24;87.73;98666.91;5094097;28;20051;-58
2021/12/24 11:02:43;;;;;;;28.27;12.85;;;;;;;0.26;87.69;98668.63;5095932;28;20048;-57
2021/12/24 11:05:27;;;;;;;23.50;12.23;;;;;;;0.29;87.32;98672.84;5088484;28;20044;-58
2021/12/24 11:07:55;;;;;;;26.02;12.18;;;;;;;0.34;87.05;98666.06;5093172;28;20051;-57
2021/12/24 11:10:25;;;;;;;22.85;10.30;;;;;;;0.34;87.11;98663.50;5088153;28;20044;-56
2021/12/24 11:12:56;;;;;;;24.02;11.75;;;;;;;0.35;86.79;98656.72;5092412;28;20393;-57
2021/12/24 11:15:29;;;;;;;24.17;13.70;;;;;;;0.37;86.47;98658.41;5100914;28;20124;-57
2021/12/24 11:18:00;;;;;;;19.48;10.23;;;;;;;0.35;86.38;98661.81;5093128;28;20051;-58
2021/12/24 11:20:28;;;;;;;27.25;12.20;;;;;;;0.34;86.71;98663.50;5093530;28;20051;-59
2021/12/24 11:23:01;;;;;;;25.88;12.50;;;;;;;0.40;86.53;98666.06;5094233;28;20041;-58
2021/12/24 11:25:31;;;;;;;26.48;12.15;;;;;;;0.46;86.68;98671.13;5101738;28;20074;-59
2021/12/24 11:28:02;;;;;;;27.42;12.77;;;;;;;0.49;86.49;98665.19;5091233;28;20040;-57
2021/12/24 11:30:31;;;;;;;21.95;11.63;;;;;;;0.51;86.50;98659.25;5094288;28;20148;-57
2021/12/24 11:32:59;;;;;;;22.23;11.35;;;;;;;0.55;86.44;98650.75;5092438;28;20413;-58
2021/12/24 11:35:27;;;;;;;21.33;11.85;;;;;;;0.60;86.18;98649.06;5096037;28;20044;-58
2021/12/24 11:37:56;;;;;;;24.48;11.23;;;;;;;0.61;86.22;98647.34;5098467;28;20476;-58
2021/12/24 11:40:25;;;;;;;21.15;11.52;;;;;;;0.67;86.00;98649.88;5096403;28;20499;-59
2021/12/24 11:42:58;;;;;;;22.77;11.15;;;;;;;0.68;85.72;98645.63;5095152;28;20052;-58
2021/12/24 11:45:29;;;;;;;22.35;11.32;;;;;;;0.71;85.84;98650.72;5096881;28;20048;-57
2021/12/24 11:47:57;;;;;;;23.10;12.05;;;;;;;0.77;85.82;98643.06;5101313;28;20048;-58
2021/12/24 11:50:26;;;;;;;21.70;11.65;;;;;;;0.83;85.45;98635.41;5093146;28;20036;-57
2021/12/24 11:52:57;;;;;;;23.77;11.75;;;;;;;0.86;85.37;98631.13;5097124;28;20405;-58
2021/12/24 11:55:26;;;;;;;22.92;11.48;;;;;;;0.88;85.61;98636.22;5095554;28;20060;-57
2021/12/24 11:57:56;;;;;;;21.83;11.38;;;;;;;0.93;85.39;98619.19;5089620;28;20181;-58
2021/12/24 12:00:36;;;;;;;20.38;10.52;;;;;;;0.95;84.92;98625.16;5095727;28;20052;-59
2021/12/24 12:03:03;;;;;;;22.63;12.45;;;;;;;0.94;84.81;98623.44;5098063;28;20420;-58
2021/12/24 12:05:33;;;;;;;21.98;11.52;;;;;;;0.95;84.57;98614.94;5094709;28;20413;-57
2021/12/24 12:08:39;;;;;;;22.40;11.35;;;;;;;0.94;84.90;98603.88;5097956;28;20141;-59
2021/12/24 12:11:15;;;;;;;24.20;12.13;;;;;;;0.95;84.92;98599.63;5102253;28;20051;-58
2021/12/24 12:13:44;;;;;;;;;;;;;;;0.87;84.71;98602.22;5101796;28;20044;-57
2021/12/24 12:16:15;;;;;;;20.55;10.82;;;;;;;0.86;84.64;98605.63;5105192;28;19919;-57
2021/12/24 12:18:47;;;;;;;21.58;11.60;;;;;;;0.79;84.95;98610.75;5092545;28;20036;-57
2021/12/24 12:21:19;;;;;;;21.95;11.63;;;;;;;0.83;85.11;98617.53;5095921;28;20062;-57
2021/12/24 12:26:50;;;;;;;22.35;12.25;;;;;;;0.84;85.57;98606.47;5049933;28;20051;-57
2021/12/24 12:29:25;;;;;;;24.27;12.15;;;;;;;0.79;85.75;98598.00;5101016;28;20112;-56
2021/12/24 12:31:56;;;;;;;22.92;13.30;;;;;;;0.79;85.84;98603.09;5094179;28;20055;-59
2021/12/24 12:34:49;;;;;;;22.80;12.45;;;;;;;0.74;85.64;98594.63;5093556;28;20407;-58
2021/12/24 12:37:18;;;;;;;22.00;12.60;;;;;;;0.75;86.02;98597.16;5104706;28;20066;-59
2021/12/24 12:39:48;;;;;;;24.50;12.38;;;;;;;0.75;86.29;98597.16;5108673;28;20047;-56
2021/12/24 12:42:17;;;;;;;24.40;12.73;;;;;;;0.73;86.10;98591.22;5103187;28;20294;-57
2021/12/24 12:44:47;;;;;;;22.02;11.80;;;;;;;0.76;86.12;98590.38;5101645;28;20723;-57
2021/12/24 12:47:19;;;;;;;24.10;11.93;;;;;;;0.73;85.93;98587.81;5094446;28;20044;-58
2021/12/24 12:49:47;;;;;;;22.52;12.68;;;;;;;0.73;85.90;98582.72;5108052;28;20059;-58
2021/12/24 12:52:24;;;;;;;25.23;13.25;;;;;;;0.69;86.02;98586.97;5107247;27;20047;-57